Time;durP1;ratioP1;P1;durP2;ratioP2;P2;SDS_P1;SDS_P2;PMS_P1;PMS_P2;Temp;Humidity;BMP_temperature;BMP_pressure;BME280_temperature;BME280_humidity;BME280_pressure;Samples;Min_cycle;Max_cycle;Signal;HPM_P1;HPM_P2
2021/07/20 00:01:32;;;;;;;13.80;8.80;;;18.30;94.60;;;;;;5010687;28;20390;-88
2021/07/20 00:03:57;;;;;;;16.83;9.05;;;18.30;94.60;;;;;;5011943;28;20026;-87
2021/07/20 00:06:23;;;;;;;14.70;8.57;;;18.30;94.50;;;;;;5010697;28;20026;-87
2021/07/20 00:08:48;;;;;;;18.40;9.30;;;18.30;94.40;;;;;;5012426;28;20026;-87
2021/07/20 00:11:14;;;;;;;17.23;9.77;;;18.20;94.60;;;;;;5015195;28;20041;-88
2021/07/20 00:13:40;;;;;;;16.92;8.98;;;18.10;94.70;;;;;;5014362;28;20033;-88
2021/07/20 00:16:06;;;;;;;16.10;9.40;;;18.10;94.70;;;;;;5015357;28;20072;-87
2021/07/20 00:18:34;;;;;;;17.65;9.52;;;18.10;94.70;;;;;;5014043;28;20026;-87
2021/07/20 00:21:03;;;;;;;16.88;9.30;;;18.00;94.80;;;;;;5013418;28;20022;-87
2021/07/20 00:23:28;;;;;;;16.73;9.50;;;18.00;94.90;;;;;;5013867;28;20552;-87
2021/07/20 00:25:54;;;;;;;15.70;8.93;;;18.00;95.10;;;;;;5015132;28;20029;-87
2021/07/20 00:28:20;;;;;;;15.68;9.25;;;17.90;95.00;;;;;;5013853;28;20034;-87
2021/07/20 00:30:47;;;;;;;15.52;9.48;;;17.90;95.10;;;;;;5013373;28;20033;-88
2021/07/20 00:33:13;;;;;;;16.90;9.35;;;17.90;95.20;;;;;;5013794;28;20041;-88
2021/07/20 00:35:39;;;;;;;17.02;9.52;;;17.90;95.30;;;;;;5014973;28;20391;-87
2021/07/20 00:38:05;;;;;;;15.27;9.80;;;17.90;95.20;;;;;;5013647;28;20022;-87
2021/07/20 00:40:31;;;;;;;15.02;9.25;;;17.80;95.30;;;;;;5014428;28;20097;-88
2021/07/20 00:42:57;;;;;;;17.58;9.98;;;17.90;95.30;;;;;;5014912;28;20506;-88
2021/07/20 00:45:24;;;;;;;14.63;9.30;;;17.80;95.30;;;;;;5014836;28;20061;-88
2021/07/20 00:47:49;;;;;;;15.00;9.43;;;17.80;95.40;;;;;;5013509;28;20029;-87
2021/07/20 00:50:20;;;;;;;16.98;9.25;;;17.80;95.40;;;;;;5012906;28;20034;-87
2021/07/20 00:52:46;;;;;;;17.00;9.77;;;17.80;95.40;;;;;;5013530;28;20033;-87
2021/07/20 00:55:12;;;;;;;18.27;9.38;;;17.70;95.30;;;;;;5013291;28;20026;-87
2021/07/20 00:57:40;;;;;;;17.33;9.38;;;17.80;95.20;;;;;;5013137;28;20088;-87
2021/07/20 01:00:08;;;;;;;18.75;10.15;;;17.70;95.30;;;;;;5012709;28;20048;-87
2021/07/20 01:02:34;;;;;;;17.17;10.20;;;17.70;95.30;;;;;;5013242;28;20611;-88
2021/07/20 01:05:00;;;;;;;17.13;9.60;;;17.70;95.40;;;;;;5013592;28;20030;-87
2021/07/20 01:07:26;;;;;;;17.55;10.55;;;17.70;95.40;;;;;;5013224;28;20144;-87
2021/07/20 01:09:54;;;;;;;19.70;10.45;;;17.70;95.40;;;;;;5013902;28;20038;-87
2021/07/20 01:12:21;;;;;;;17.15;9.82;;;17.70;95.50;;;;;;5013110;28;20026;-87
2021/07/20 01:14:48;;;;;;;16.70;10.30;;;17.60;95.50;;;;;;5014631;28;20060;-88
2021/07/20 01:17:14;;;;;;;15.07;9.48;;;17.60;95.60;;;;;;5013434;28;20033;-87
2021/07/20 01:20:00;;;;;;;17.77;10.43;;;17.50;95.80;;;;;;5016642;28;20064;-87
2021/07/20 01:22:34;;;;;;;21.58;10.25;;;17.60;95.80;;;;;;5018044;28;20057;-87
2021/07/20 01:25:01;;;;;;;17.17;9.77;;;17.50;95.90;;;;;;5017790;28;20494;-87
2021/07/20 01:27:28;;;;;;;18.35;9.88;;;17.50;95.90;;;;;;5017997;28;20386;-87
2021/07/20 01:29:55;;;;;;;18.83;10.77;;;17.50;96.00;;;;;;5017348;28;20037;-87
2021/07/20 01:32:21;;;;;;;19.35;10.27;;;17.50;96.00;;;;;;5015637;28;20069;-88
2021/07/20 01:34:49;;;;;;;16.90;9.65;;;17.40;96.30;;;;;;5013923;28;20108;-87
2021/07/20 01:37:16;;;;;;;18.55;10.50;;;17.50;96.10;;;;;;5012696;28;20029;-87
2021/07/20 01:39:43;;;;;;;18.00;10.65;;;17.40;96.10;;;;;;5011882;28;20076;-88
2021/07/20 01:42:08;;;;;;;15.23;9.98;;;17.40;96.10;;;;;;5012406;28;20033;-87
2021/07/20 01:44:34;;;;;;;17.65;9.75;;;17.40;96.10;;;;;;5026332;23;20042;-81
2021/07/20 01:47:00;;;;;;;17.52;10.23;;;17.40;96.10;;;;;;4997610;28;20027;-82
2021/07/20 01:49:27;;;;;;;16.77;10.43;;;17.40;96.50;;;;;;4994598;28;20022;-82
2021/07/20 01:51:54;;;;;;;17.67;10.50;;;17.40;96.00;;;;;;4995419;28;20117;-81
2021/07/20 01:54:20;;;;;;;19.27;10.90;;;17.30;96.50;;;;;;4995282;28;20026;-82
2021/07/20 01:56:47;;;;;;;18.73;9.95;;;17.30;96.10;;;;;;4996370;28;20116;-82
2021/07/20 01:59:13;;;;;;;18.45;10.63;;;17.30;96.10;;;;;;4996524;28;20026;-82
2021/07/20 02:02:11;;;;;;;19.27;10.68;;;17.30;96.10;;;;;;4997287;28;20030;-81
2021/07/20 02:09:56;;;;;;;16.88;10.23;;;17.30;96.10;;;;;;4996472;28;19940;-82
2021/07/20 02:12:32;;;;;;;18.38;10.90;;;17.30;96.00;;;;;;4996984;28;20026;-82
2021/07/20 02:15:00;;;;;;;18.60;10.65;;;17.30;96.10;;;;;;4994314;28;20022;-82
2021/07/20 02:17:27;;;;;;;19.30;11.63;;;17.30;96.00;;;;;;4996638;28;20033;-82
2021/07/20 02:20:22;;;;;;;20.27;11.13;;;17.30;96.10;;;;;;4996094;28;20098;-82
2021/07/20 02:22:52;;;;;;;20.58;11.18;;;17.30;96.50;;;;;;4994904;28;20060;-82
2021/07/20 02:25:18;;;;;;;17.73;11.30;;;17.30;96.20;;;;;;4994566;28;20364;-82
2021/07/20 02:27:44;;;;;;;21.45;11.48;;;17.20;96.20;;;;;;4994189;28;20026;-82
2021/07/20 02:30:13;;;;;;;20.08;11.52;;;17.20;96.10;;;;;;4994190;28;20030;-82
2021/07/20 02:32:40;;;;;;;21.48;12.05;;;17.20;96.30;;;;;;4996115;28;20018;-81
2021/07/20 02:35:08;;;;;;;19.30;10.70;;;17.10;96.50;;;;;;4995510;28;20034;-81
2021/07/20 02:37:35;;;;;;;18.20;10.85;;;17.00;96.60;;;;;;4996664;28;20018;-81
2021/07/20 02:40:03;;;;;;;20.42;11.63;;;17.00;96.80;;;;;;4996342;28;20026;-82
2021/07/20 02:42:29;;;;;;;17.10;10.52;;;16.90;97.30;;;;;;4995262;28;20033;-81
2021/07/20 02:44:56;;;;;;;17.42;10.65;;;16.90;97.20;;;;;;4994602;28;20057;-82
2021/07/20 02:47:23;;;;;;;23.30;11.00;;;16.80;97.30;;;;;;4996880;28;20325;-82
2021/07/20 02:49:50;;;;;;;18.60;11.23;;;16.80;97.30;;;;;;4995280;28;20046;-82
2021/07/20 02:52:16;;;;;;;18.42;10.85;;;16.70;97.50;;;;;;4994701;28;20019;-81
2021/07/20 02:54:43;;;;;;;20.83;11.27;;;16.70;97.60;;;;;;4996708;28;20022;-82
2021/07/20 02:57:09;;;;;;;22.25;11.30;;;16.60;97.70;;;;;;4995949;28;20018;-82
2021/07/20 02:59:36;;;;;;;19.33;11.48;;;16.50;97.90;;;;;;4994842;28;20428;-82
2021/07/20 03:02:03;;;;;;;24.83;11.43;;;16.50;98.00;;;;;;4994799;28;20026;-82
2021/07/20 03:04:29;;;;;;;17.70;10.55;;;16.50;98.00;;;;;;4995696;28;20049;-82
2021/07/20 03:06:59;;;;;;;18.17;10.68;;;16.40;98.00;;;;;;4995775;28;20483;-81
2021/07/20 03:09:26;;;;;;;23.00;11.63;;;16.50;98.10;;;;;;4995139;28;20360;-82
2021/07/20 03:12:02;;;;;;;19.85;10.98;;;16.50;98.10;;;;;;4993857;28;20399;-81
2021/07/20 03:14:28;;;;;;;20.63;11.05;;;16.40;98.10;;;;;;4994211;28;20046;-81
2021/07/20 03:16:56;;;;;;;20.02;11.38;;;16.50;98.10;;;;;;4993975;28;20045;-82
2021/07/20 03:19:27;;;;;;;18.33;10.70;;;16.50;98.00;;;;;;4994478;28;20069;-81
2021/07/20 03:21:56;;;;;;;21.15;11.07;;;16.50;98.00;;;;;;4994331;28;20019;-82
2021/07/20 03:24:22;;;;;;;19.58;11.07;;;16.50;98.00;;;;;;4994082;28;20475;-82
2021/07/20 03:26:50;;;;;;;21.05;11.27;;;16.60;98.00;;;;;;4994019;28;20424;-81
2021/07/20 03:29:16;;;;;;;20.60;11.10;;;16.50;98.00;;;;;;4994909;28;20033;-81
2021/07/20 03:31:43;;;;;;;19.80;11.55;;;16.50;98.00;;;;;;4993646;28;20027;-82
2021/07/20 03:34:09;;;;;;;19.70;11.52;;;16.50;98.00;;;;;;4993722;28;20085;-81
2021/07/20 03:36:36;;;;;;;22.95;11.88;;;16.50;98.00;;;;;;4995338;28;20034;-82
2021/07/20 03:39:04;;;;;;;19.77;11.60;;;16.50;98.00;;;;;;4993046;28;20025;-81
2021/07/20 03:41:30;;;;;;;20.60;12.07;;;16.50;98.10;;;;;;4995445;28;20027;-82
2021/07/20 03:43:56;;;;;;;21.83;11.77;;;16.40;98.10;;;;;;4997190;28;20022;-82
2021/07/20 03:46:23;;;;;;;21.85;11.38;;;16.40;98.20;;;;;;4998212;28;20030;-81
2021/07/20 03:48:50;;;;;;;21.67;12.32;;;16.50;98.20;;;;;;4998162;28;20026;-81
2021/07/20 03:51:17;;;;;;;20.92;12.02;;;16.50;98.20;;;;;;4998664;28;20019;-82
2021/07/20 03:53:44;;;;;;;22.67;12.60;;;16.50;98.10;;;;;;4999434;28;20030;-82
2021/07/20 03:56:10;;;;;;;20.52;11.82;;;16.50;98.20;;;;;;4998460;28;20109;-82
2021/07/20 03:58:39;;;;;;;23.40;12.82;;;16.50;98.10;;;;;;4999519;28;20058;-82
2021/07/20 04:01:05;;;;;;;22.27;12.27;;;16.50;98.10;;;;;;4998837;28;20024;-82
2021/07/20 04:03:34;;;;;;;20.98;11.55;;;16.50;98.10;;;;;;4999860;28;20015;-82
2021/07/20 04:06:05;;;;;;;22.35;11.63;;;16.50;98.20;;;;;;4998010;28;20029;-81
2021/07/20 04:08:37;;;;;;;22.45;12.10;;;16.50;98.20;;;;;;4997624;28;20039;-81
2021/07/20 04:11:03;;;;;;;19.85;11.85;;;16.50;98.10;;;;;;4996791;28;20022;-82
2021/07/20 04:13:30;;;;;;;25.33;12.40;;;16.50;98.10;;;;;;4997206;28;20036;-81
2021/07/20 04:16:02;;;;;;;20.80;11.80;;;16.50;98.00;;;;;;4998869;28;20026;-82
2021/07/20 04:18:29;;;;;;;22.30;12.00;;;16.50;98.10;;;;;;4996881;28;20069;-81
2021/07/20 04:20:56;;;;;;;21.15;12.40;;;16.50;98.00;;;;;;4998193;28;20434;-82
2021/07/20 04:23:23;;;;;;;22.58;12.20;;;16.40;98.00;;;;;;4998536;28;20054;-82
2021/07/20 04:25:52;;;;;;;21.83;12.00;;;16.50;98.00;;;;;;4998880;28;20085;-81
2021/07/20 04:28:23;;;;;;;19.95;11.93;;;16.50;98.00;;;;;;4997516;28;20030;-82
2021/07/20 04:30:50;;;;;;;22.27;11.88;;;16.40;97.90;;;;;;4996291;28;20027;-81
2021/07/20 04:33:27;;;;;;;21.55;12.05;;;16.50;98.30;;;;;;4996437;28;20057;-81
2021/07/20 04:35:54;;;;;;;23.05;12.05;;;16.40;97.90;;;;;;4998219;28;20346;-81
2021/07/20 04:38:22;;;;;;;24.80;12.60;;;16.40;98.00;;;;;;4997359;28;20113;-82
2021/07/20 04:40:48;;;;;;;22.88;12.68;;;16.50;98.10;;;;;;4996713;28;20036;-82
2021/07/20 04:43:14;;;;;;;23.40;13.00;;;16.50;98.10;;;;;;4997675;28;20125;-81
2021/07/20 04:45:44;;;;;;;22.25;12.13;;;16.50;98.00;;;;;;4998045;28;20034;-82
2021/07/20 04:48:13;;;;;;;22.60;12.50;;;16.50;97.90;;;;;;4996640;28;20026;-82
2021/07/20 04:50:39;;;;;;;21.35;12.82;;;16.60;97.70;;;;;;4998227;28;20108;-81
2021/07/20 04:53:05;;;;;;;20.65;11.82;;;16.60;97.70;;;;;;4998763;28;20092;-82
2021/07/20 04:55:31;;;;;;;21.23;12.50;;;16.60;97.70;;;;;;4996246;28;20026;-82
2021/07/20 04:58:01;;;;;;;22.65;13.35;;;16.60;97.70;;;;;;4996949;28;20258;-82
2021/07/20 05:00:27;;;;;;;24.70;13.18;;;16.60;97.70;;;;;;4996480;28;20094;-82
2021/07/20 05:02:56;;;;;;;20.35;12.63;;;16.50;97.50;;;;;;4996769;28;20026;-82
2021/07/20 05:05:24;;;;;;;26.27;13.20;;;16.60;97.60;;;;;;4996249;28;20300;-81
2021/07/20 05:07:51;;;;;;;26.05;13.27;;;16.60;97.70;;;;;;4996233;28;20030;-81
2021/07/20 05:10:17;;;;;;;23.95;13.48;;;16.60;97.50;;;;;;4997765;28;20030;-81
2021/07/20 05:12:43;;;;;;;24.38;12.80;;;16.60;97.60;;;;;;4996411;28;20030;-81
2021/07/20 05:15:13;;;;;;;23.70;13.05;;;16.60;97.50;;;;;;4996475;28;20045;-81
2021/07/20 05:17:40;;;;;;;25.65;13.65;;;16.60;97.50;;;;;;4997271;28;20026;-82
2021/07/20 05:20:07;;;;;;;24.73;13.70;;;16.60;97.40;;;;;;4997555;28;20483;-82
2021/07/20 05:22:35;;;;;;;26.63;13.48;;;16.70;97.40;;;;;;4995741;28;20022;-82
2021/07/20 05:25:06;;;;;;;26.75;14.13;;;16.70;97.30;;;;;;4995964;28;20026;-81
2021/07/20 05:27:35;;;;;;;24.50;12.73;;;16.70;97.30;;;;;;4995535;28;20101;-82
2021/07/20 05:30:06;;;;;;;26.00;12.73;;;16.70;97.40;;;;;;4995209;28;20022;-81
2021/07/20 05:32:34;;;;;;;23.75;13.52;;;16.80;97.30;;;;;;4995811;28;20077;-81
2021/07/20 05:35:01;;;;;;;24.83;13.38;;;16.80;97.40;;;;;;4997588;28;20022;-82
2021/07/20 05:37:26;;;;;;;25.90;13.82;;;16.90;97.30;;;;;;4997112;28;20054;-82
2021/07/20 05:39:52;;;;;;;22.73;12.45;;;16.90;97.40;;;;;;4995005;28;20026;-82
2021/07/20 05:42:18;;;;;;;27.73;13.60;;;17.00;97.30;;;;;;4997246;28;20130;-82
2021/07/20 05:44:46;;;;;;;25.85;12.77;;;17.00;97.20;;;;;;4995317;28;20030;-81
2021/07/20 05:47:15;;;;;;;27.40;14.35;;;17.00;97.30;;;;;;4995510;28;20117;-82
2021/07/20 05:49:41;;;;;;;;;;;17.00;97.30;;;;;;4995439;28;20022;-81
2021/07/20 05:52:07;;;;;;;22.08;13.05;;;17.00;97.40;;;;;;4997255;28;19913;-82
2021/07/20 05:54:34;;;;;;;25.23;12.75;;;17.10;97.40;;;;;;4995302;28;20085;-82
2021/07/20 05:57:01;;;;;;;21.98;12.65;;;17.10;97.30;;;;;;4995671;28;20033;-82
2021/07/20 05:59:27;;;;;;;23.73;13.85;;;17.10;97.20;;;;;;4994789;28;20022;-81
2021/07/20 06:01:53;;;;;;;24.65;13.88;;;17.10;97.50;;;;;;4995269;28;20475;-82
2021/07/20 06:04:19;;;;;;;23.90;12.57;;;17.10;97.60;;;;;;4995564;28;20022;-82
2021/07/20 06:06:49;;;;;;;22.65;12.77;;;17.20;97.50;;;;;;4995901;28;20026;-81
2021/07/20 06:09:17;;;;;;;26.05;12.77;;;17.20;97.50;;;;;;4995528;28;20030;-81
2021/07/20 06:11:46;;;;;;;21.15;12.25;;;17.20;97.50;;;;;;4997237;28;20061;-81
2021/07/20 06:14:12;;;;;;;25.48;12.93;;;17.30;97.40;;;;;;4994960;28;20041;-81
2021/07/20 06:16:40;;;;;;;21.08;12.80;;;17.30;97.40;;;;;;4995328;28;20117;-82
2021/07/20 06:19:06;;;;;;;23.48;11.88;;;17.40;97.80;;;;;;4994763;28;20026;-82
2021/07/20 06:21:35;;;;;;;19.67;10.45;;;17.40;97.50;;;;;;4994705;28;20026;-82
2021/07/20 06:24:02;;;;;;;24.35;12.48;;;17.50;97.50;;;;;;4995649;28;20018;-81
2021/07/20 06:26:28;;;;;;;27.45;12.55;;;17.50;97.20;;;;;;4994524;28;20030;-82
2021/07/20 06:28:59;;;;;;;27.65;14.18;;;17.50;97.10;;;;;;4994358;28;20034;-81
2021/07/20 06:31:25;;;;;;;25.23;12.85;;;17.60;97.10;;;;;;4996221;28;20027;-81
2021/07/20 06:33:53;;;;;;;24.63;13.73;;;17.60;97.20;;;;;;4996240;28;20388;-82
2021/07/20 06:36:20;;;;;;;20.48;11.38;;;17.60;97.40;;;;;;4995124;28;20066;-81
2021/07/20 06:38:46;;;;;;;22.70;11.52;;;17.70;97.10;;;;;;4995352;28;20028;-81
2021/07/20 06:41:13;;;;;;;24.33;13.07;;;17.70;97.10;;;;;;4994090;28;20106;-82
2021/07/20 06:43:42;;;;;;;24.20;14.07;;;17.70;96.90;;;;;;4994609;28;20073;-82
2021/07/20 06:46:09;;;;;;;23.25;11.82;;;17.80;96.60;;;;;;4996359;28;20034;-82
2021/07/20 06:48:38;;;;;;;18.50;11.13;;;17.80;96.20;;;;;;4995719;28;20041;-81
2021/07/20 06:51:06;;;;;;;17.95;10.93;;;17.80;96.20;;;;;;4994858;28;20027;-82
2021/07/20 06:53:34;;;;;;;18.95;10.95;;;17.80;95.90;;;;;;4995674;28;20353;-82
2021/07/20 06:56:02;;;;;;;20.95;11.10;;;17.80;95.80;;;;;;4995882;28;20030;-82
2021/07/20 06:58:29;;;;;;;18.52;10.23;;;17.90;95.80;;;;;;4994437;28;20023;-82
2021/07/20 07:00:56;;;;;;;16.77;9.02;;;17.90;95.90;;;;;;4995209;28;20034;-82
2021/07/20 07:03:38;;;;;;;18.52;9.90;;;17.90;95.90;;;;;;4995768;28;20033;-81
2021/07/20 07:06:05;;;;;;;15.75;9.57;;;18.00;95.90;;;;;;4994735;28;20034;-81
2021/07/20 07:08:32;;;;;;;16.88;9.70;;;18.00;96.00;;;;;;4993527;28;20085;-82
2021/07/20 07:11:00;;;;;;;17.73;9.30;;;18.10;95.80;;;;;;4995187;28;20023;-81
2021/07/20 07:13:28;;;;;;;16.20;9.95;;;18.20;95.70;;;;;;4993981;28;20030;-81
2021/07/20 07:15:55;;;;;;;16.73;8.68;;;18.20;95.10;;;;;;4995494;28;20029;-81
2021/07/20 07:18:21;;;;;;;16.63;8.77;;;18.20;94.90;;;;;;4994155;28;20022;-82
2021/07/20 07:20:50;;;;;;;14.18;8.20;;;18.20;94.50;;;;;;4993858;28;20501;-82
2021/07/20 07:23:17;;;;;;;13.68;7.82;;;18.30;94.60;;;;;;4995143;28;20027;-82
2021/07/20 07:25:51;;;;;;;15.30;7.38;;;18.30;94.40;;;;;;4996262;28;20033;-82
2021/07/20 07:28:18;;;;;;;15.88;8.20;;;18.30;94.40;;;;;;4995028;28;20390;-81
2021/07/20 07:30:46;;;;;;;15.15;7.63;;;18.40;94.40;;;;;;4994332;28;20070;-82
2021/07/20 07:33:12;;;;;;;15.00;7.80;;;18.40;94.40;;;;;;4994027;28;20026;-82
2021/07/20 07:35:37;;;;;;;14.48;7.72;;;18.40;94.30;;;;;;4995785;28;20037;-82
2021/07/20 07:38:04;;;;;;;13.88;7.57;;;18.40;94.20;;;;;;4994746;28;20110;-82
2021/07/20 07:40:30;;;;;;;14.32;7.32;;;18.50;94.10;;;;;;4993580;28;20023;-82
2021/07/20 07:43:02;;;;;;;15.15;8.75;;;18.60;94.20;;;;;;4996651;28;20479;-81
2021/07/20 07:45:28;;;;;;;15.45;8.05;;;18.60;93.80;;;;;;4996770;28;20035;-82
2021/07/20 07:47:55;;;;;;;14.63;7.65;;;18.60;93.90;;;;;;4995884;28;20030;-81
2021/07/20 07:50:21;;;;;;;15.30;8.38;;;18.70;94.00;;;;;;4993904;28;20484;-82
2021/07/20 07:52:48;;;;;;;24.92;11.90;;;18.70;94.00;;;;;;4995464;28;20114;-82
2021/07/20 07:55:14;;;;;;;17.33;8.55;;;18.70;93.80;;;;;;4995127;28;20030;-82
2021/07/20 07:57:43;;;;;;;15.75;8.23;;;18.70;93.80;;;;;;4992213;28;20022;-81
2021/07/20 08:00:10;;;;;;;17.70;9.73;;;18.70;93.70;;;;;;4992216;28;20053;-82
2021/07/20 08:02:38;;;;;;;17.52;9.38;;;18.80;93.50;;;;;;4992679;28;20085;-82
2021/07/20 08:05:06;;;;;;;16.17;9.23;;;18.80;93.60;;;;;;4992101;28;20026;-82
2021/07/20 08:07:34;;;;;;;19.70;9.63;;;18.70;93.80;;;;;;4993593;28;20026;-81
2021/07/20 08:10:01;;;;;;;16.67;9.48;;;18.80;93.80;;;;;;4994172;28;20417;-82
2021/07/20 08:12:29;;;;;;;18.98;8.90;;;18.80;93.80;;;;;;4993201;28;20050;-82
2021/07/20 08:14:58;;;;;;;14.65;9.07;;;18.80;94.00;;;;;;4992621;28;20391;-82
2021/07/20 08:17:25;;;;;;;15.35;8.68;;;18.90;93.70;;;;;;4993143;28;20245;-81
2021/07/20 08:19:52;;;;;;;15.10;8.52;;;18.90;93.80;;;;;;4992416;28;20029;-82
2021/07/20 08:22:19;;;;;;;13.77;7.50;;;19.00;93.50;;;;;;4994399;28;20037;-82
2021/07/20 08:24:55;;;;;;;14.85;7.85;;;19.10;93.60;;;;;;4993780;28;20483;-81
2021/07/20 08:27:32;;;;;;;14.88;8.70;;;19.20;93.60;;;;;;4994370;28;20042;-82
2021/07/20 08:29:59;;;;;;;14.52;7.55;;;19.20;92.90;;;;;;4994588;28;20394;-83
2021/07/20 08:32:30;;;;;;;16.38;8.35;;;19.30;92.50;;;;;;4997093;28;20022;-82
2021/07/20 08:35:05;;;;;;;16.52;8.23;;;19.20;91.40;;;;;;4997728;28;20058;-82
2021/07/20 08:37:33;;;;;;;15.00;8.23;;;19.20;91.60;;;;;;4995884;28;20041;-82
2021/07/20 08:40:01;;;;;;;13.52;8.63;;;19.20;91.90;;;;;;4995796;28;20033;-82
2021/07/20 08:42:58;;;;;;;15.18;8.68;;;19.20;91.90;;;;;;4997119;28;20518;-82
2021/07/20 08:45:31;;;;;;;12.45;7.80;;;19.30;91.40;;;;;;4996668;28;20050;-82
2021/07/20 08:48:04;;;;;;;14.27;7.68;;;19.30;91.50;;;;;;4998643;28;20387;-82
2021/07/20 08:50:45;;;;;;;14.77;8.50;;;19.30;91.20;;;;;;4996137;28;20041;-82
2021/07/20 08:53:20;;;;;;;12.38;7.60;;;19.30;91.10;;;;;;4996893;28;20027;-82
2021/07/20 08:55:50;;;;;;;13.82;7.68;;;19.40;91.20;;;;;;4995688;28;20031;-81
2021/07/20 08:58:25;;;;;;;13.23;7.10;;;19.40;90.70;;;;;;4995688;28;20030;-81
2021/07/20 09:00:55;;;;;;;12.95;7.90;;;19.40;90.60;;;;;;4995448;28;20026;-82
2021/07/20 09:03:56;;;;;;;13.25;7.40;;;19.40;90.60;;;;;;4995948;28;20030;-82
2021/07/20 09:06:41;;;;;;;14.50;8.48;;;19.40;90.60;;;;;;4996319;28;20026;-82
2021/07/20 09:09:18;;;;;;;12.13;7.70;;;19.40;90.10;;;;;;4995424;28;20030;-82
2021/07/20 09:12:30;;;;;;;12.18;7.00;;;19.40;90.30;;;;;;4997606;28;20029;-81
2021/07/20 09:14:55;;;;;;;12.57;7.47;;;19.50;90.70;;;;;;4991229;28;20039;-82
2021/07/20 09:17:43;;;;;;;11.20;7.22;;;19.60;90.40;;;;;;4997418;28;20041;-82
2021/07/20 09:20:20;;;;;;;13.13;7.07;;;19.60;90.50;;;;;;4996854;28;20033;-82
2021/07/20 09:23:11;;;;;;;14.77;7.30;;;19.60;90.30;;;;;;4996139;28;20033;-82
2021/07/20 09:25:44;;;;;;;14.25;6.97;;;19.60;90.10;;;;;;4994953;28;20043;-82
2021/07/20 09:28:30;;;;;;;13.52;7.65;;;19.60;90.00;;;;;;4995092;28;20034;-82
2021/07/20 09:30:58;;;;;;;16.65;8.02;;;19.60;90.00;;;;;;4996367;28;20030;-81
2021/07/20 09:33:40;;;;;;;11.95;7.38;;;19.50;89.30;;;;;;4996252;28;20030;-82
2021/07/20 09:36:31;;;;;;;14.20;7.63;;;19.50;90.20;;;;;;4996505;28;20089;-82
2021/07/20 09:39:15;;;;;;;13.65;7.13;;;19.60;90.20;;;;;;4988962;28;20068;-81
2021/07/20 09:41:51;;;;;;;13.00;7.00;;;19.70;90.10;;;;;;4995704;28;20033;-81
2021/07/20 09:44:41;;;;;;;10.93;6.95;;;19.70;89.20;;;;;;4994722;28;20093;-81
2021/07/20 09:47:39;;;;;;;11.65;6.63;;;19.70;88.90;;;;;;4994592;28;20064;-82
2021/07/20 09:50:08;;;;;;;13.13;8.10;;;19.60;89.00;;;;;;4994478;28;20376;-82
2021/07/20 09:52:42;;;;;;;13.98;7.40;;;19.70;89.30;;;;;;4996465;28;20034;-82
2021/07/20 09:55:13;;;;;;;15.18;8.05;;;19.70;86.90;;;;;;4993629;28;20026;-81
2021/07/20 09:57:54;;;;;;;14.35;7.80;;;19.70;87.40;;;;;;4993552;28;20023;-81
2021/07/20 10:00:33;;;;;;;13.00;7.63;;;19.70;87.90;;;;;;4994866;28;20392;-81
2021/07/20 10:03:14;;;;;;;;;;;19.70;86.90;;;;;;4993841;28;20018;-81
2021/07/20 10:05:45;;;;;;;14.18;7.47;;;19.70;86.70;;;;;;4993291;28;19906;-82
2021/07/20 10:08:22;;;;;;;11.82;7.55;;;19.70;86.50;;;;;;4995041;28;20064;-81
2021/07/20 10:11:01;;;;;;;12.88;7.60;;;19.80;86.60;;;;;;4993043;28;20018;-81
2021/07/20 10:13:33;;;;;;;12.40;7.65;;;19.70;84.90;;;;;;4995160;28;20109;-81
2021/07/20 10:16:18;;;;;;;11.82;7.20;;;19.80;86.40;;;;;;4994430;28;20026;-81
2021/07/20 10:19:07;;;;;;;11.15;7.00;;;19.90;87.40;;;;;;4993872;28;20100;-82
2021/07/20 10:21:38;;;;;;;13.18;7.65;;;19.90;86.40;;;;;;4995999;28;20281;-81
2021/07/20 10:24:16;;;;;;;14.95;8.38;;;20.00;86.50;;;;;;4994590;28;20368;-82
2021/07/20 10:26:57;;;;;;;13.52;8.00;;;20.00;85.90;;;;;;4994448;28;20037;-82
2021/07/20 10:29:35;;;;;;;12.73;8.10;;;20.00;85.80;;;;;;4995374;28;20026;-81
2021/07/20 10:32:25;;;;;;;14.88;8.30;;;20.00;85.50;;;;;;4995578;28;20022;-82
2021/07/20 10:34:58;;;;;;;14.25;8.27;;;20.00;84.30;;;;;;4994120;28;20026;-81
2021/07/20 10:37:28;;;;;;;14.18;7.75;;;20.10;84.20;;;;;;4994142;28;20030;-82
2021/07/20 10:40:09;;;;;;;13.73;8.50;;;20.10;83.50;;;;;;4992139;28;20435;-82
2021/07/20 10:42:37;;;;;;;12.43;8.23;;;20.10;83.00;;;;;;4992885;28;20072;-81
2021/07/20 10:45:08;;;;;;;13.38;7.47;;;20.20;82.90;;;;;;4992866;28;20491;-82
2021/07/20 10:47:43;;;;;;;13.68;8.35;;;20.20;83.70;;;;;;4992827;28;20479;-82
2021/07/20 10:50:23;;;;;;;15.82;8.80;;;20.20;83.30;;;;;;4993822;28;20030;-81
2021/07/20 10:52:58;;;;;;;14.15;8.57;;;20.20;83.20;;;;;;4993518;28;20058;-82
2021/07/20 10:55:37;;;;;;;14.13;8.30;;;20.20;83.70;;;;;;4992503;28;20057;-81
2021/07/20 10:58:44;;;;;;;13.75;7.95;;;20.20;83.60;;;;;;4992563;28;20022;-82
2021/07/20 11:01:20;;;;;;;16.17;8.65;;;20.20;83.20;;;;;;4964338;28;20038;-82
2021/07/20 11:04:15;;;;;;;16.50;8.95;;;20.20;83.30;;;;;;4992287;28;20368;-81
2021/07/20 11:06:43;;;;;;;14.85;8.35;;;20.20;82.30;;;;;;4992751;28;20057;-81
2021/07/20 11:09:18;;;;;;;13.25;8.32;;;20.30;83.40;;;;;;4991921;28;20030;-81
2021/07/20 11:11:48;;;;;;;15.07;8.55;;;20.30;82.60;;;;;;4993889;28;20034;-82
2021/07/20 11:14:14;;;;;;;14.30;8.90;;;20.30;82.20;;;;;;4993587;28;20061;-82
2021/07/20 11:16:40;;;;;;;16.13;8.00;;;20.30;82.90;;;;;;4993924;28;20030;-81
2021/07/20 11:19:08;;;;;;;12.13;8.05;;;20.30;82.80;;;;;;4991792;28;20513;-81
2021/07/20 11:21:34;;;;;;;12.82;7.88;;;20.30;83.80;;;;;;4992175;28;20026;-81
2021/07/20 11:24:00;;;;;;;15.13;8.68;;;20.40;82.30;;;;;;4992519;28;20396;-81
2021/07/20 11:26:29;;;;;;;14.50;8.95;;;20.40;81.30;;;;;;4992764;28;20476;-81
2021/07/20 11:28:55;;;;;;;14.68;9.43;;;20.40;80.80;;;;;;4992600;28;20026;-82
2021/07/20 11:31:39;;;;;;;14.63;8.93;;;20.40;81.30;;;;;;4992994;28;20041;-81
2021/07/20 11:34:25;;;;;;;16.45;9.15;;;20.40;80.20;;;;;;4992130;28;20502;-82
2021/07/20 11:36:55;;;;;;;11.80;7.72;;;20.50;80.50;;;;;;4993969;28;20392;-81
2021/07/20 11:39:25;;;;;;;15.55;8.60;;;20.60;80.70;;;;;;4991849;28;20027;-82
2021/07/20 11:42:09;;;;;;;14.40;8.27;;;20.50;80.60;;;;;;4993744;28;20025;-81
2021/07/20 11:44:55;;;;;;;15.10;9.00;;;20.60;81.20;;;;;;4993413;28;20062;-82
2021/07/20 11:47:28;;;;;;;14.15;8.13;;;20.60;80.40;;;;;;4992478;28;20034;-82
2021/07/20 11:50:12;;;;;;;14.25;8.35;;;20.60;81.40;;;;;;4993451;28;20068;-82
2021/07/20 11:52:47;;;;;;;15.45;8.95;;;20.50;80.70;;;;;;4993513;28;20081;-81
2021/07/20 11:55:48;;;;;;;13.02;8.23;;;20.50;81.00;;;;;;4991915;28;20022;-81
2021/07/20 11:58:38;;;;;;;12.65;7.93;;;20.50;81.80;;;;;;4993766;28;20089;-81
2021/07/20 12:01:42;;;;;;;15.13;9.43;;;20.60;81.20;;;;;;4991133;28;20076;-81
2021/07/20 12:04:39;;;;;;;14.98;9.13;;;20.60;81.80;;;;;;4994640;28;20030;-82
2021/07/20 12:07:11;;;;;;;12.32;8.30;;;20.70;80.80;;;;;;4997178;28;20034;-82
2021/07/20 12:09:54;;;;;;;14.50;8.88;;;20.70;81.00;;;;;;4996429;28;20391;-82
2021/07/20 12:12:32;;;;;;;16.25;8.63;;;20.70;81.00;;;;;;4996622;28;20065;-82
2021/07/20 12:14:58;;;;;;;14.10;7.93;;;20.70;81.50;;;;;;4995952;28;20061;-82
2021/07/20 12:17:31;;;;;;;14.52;8.55;;;20.80;81.60;;;;;;4997056;28;20041;-82
2021/07/20 12:19:57;;;;;;;13.50;8.05;;;20.90;79.20;;;;;;4998265;28;20030;-82
2021/07/20 12:22:24;;;;;;;16.52;8.95;;;20.90;79.00;;;;;;4998506;28;20041;-82
2021/07/20 12:24:54;;;;;;;14.00;8.55;;;21.00;78.70;;;;;;4996986;28;20038;-82
2021/07/20 12:27:21;;;;;;;12.43;8.05;;;21.00;78.60;;;;;;4996079;28;20153;-82
2021/07/20 12:29:51;;;;;;;16.02;8.68;;;21.10;78.90;;;;;;4995214;28;20030;-82
2021/07/20 12:32:17;;;;;;;11.93;8.05;;;21.20;79.90;;;;;;4995258;28;20022;-82
2021/07/20 12:34:48;;;;;;;17.45;10.10;;;21.30;79.40;;;;;;4996342;28;20022;-82
2021/07/20 12:37:14;;;;;;;12.98;8.45;;;21.40;79.50;;;;;;4995437;28;20093;-82
2021/07/20 12:39:41;;;;;;;14.20;7.97;;;21.50;78.90;;;;;;4994626;28;20026;-82
2021/07/20 12:42:07;;;;;;;12.45;8.05;;;21.70;77.50;;;;;;4995423;28;20088;-82
2021/07/20 12:44:34;;;;;;;14.85;8.52;;;21.80;77.40;;;;;;4995484;28;20484;-82
2021/07/20 12:47:08;;;;;;;12.70;7.88;;;22.00;78.90;;;;;;4995555;28;20571;-82
2021/07/20 12:49:39;;;;;;;13.52;8.60;;;22.10;75.90;;;;;;4994816;28;20124;-82
2021/07/20 12:52:06;;;;;;;12.45;7.93;;;22.20;75.20;;;;;;4995311;28;20022;-82
2021/07/20 12:54:35;;;;;;;12.80;8.13;;;22.20;73.80;;;;;;4996123;28;20022;-82
2021/07/20 12:57:03;;;;;;;16.60;8.40;;;22.20;73.30;;;;;;4996587;28;20029;-82